Time;durP1;ratioP1;P1;durP2;ratioP2;P2;SDS_P1;SDS_P2;PMS_P1;PMS_P2;Temp;Humidity;BMP_temperature;BMP_pressure;BME280_temperature;BME280_humidity;BME280_pressure;Samples;Min_cycle;Max_cycle;Signal;HPM_P1;HPM_P2
2023/07/10 00:00:59;;;;;;;;;;;21.30;99.90;;;;;;5031393;28;19924;-53
2023/07/10 00:03:25;;;;;;;;;;;21.30;99.90;;;;;;5030803;28;19913;-52
2023/07/10 00:05:50;;;;;;;;;;;21.30;99.90;;;;;;5031101;28;19913;-51
2023/07/10 00:08:16;;;;;;;;;;;21.20;99.90;;;;;;5031209;28;19909;-54
2023/07/10 00:10:42;;;;;;;;;;;21.20;99.90;;;;;;5031580;28;19936;-54
2023/07/10 00:13:11;;;;;;;;;;;21.20;99.90;;;;;;5030939;28;19955;-52
2023/07/10 00:15:37;;;;;;;;;;;21.20;99.90;;;;;;5030982;28;19915;-51
2023/07/10 00:18:08;;;;;;;;;;;21.10;99.90;;;;;;5030913;28;19909;-55
2023/07/10 00:20:33;;;;;;;;;;;21.10;99.90;;;;;;5031032;28;19924;-52
2023/07/10 00:22:59;;;;;;;;;;;21.10;99.90;;;;;;5030874;28;19909;-55
2023/07/10 00:25:24;;;;;;;;;;;21.10;99.90;;;;;;5030907;28;19916;-55
2023/07/10 00:27:51;;;;;;;;;;;21.00;99.90;;;;;;5031157;28;19925;-53
2023/07/10 00:30:21;;;;;;;;;;;21.00;99.90;;;;;;5013339;28;19993;-55
2023/07/10 00:32:47;;;;;;;;;;;21.00;99.90;;;;;;5012927;28;20258;-53
2023/07/10 00:35:17;;;;;;;;;;;21.00;99.90;;;;;;5013036;28;19967;-51
2023/07/10 00:37:44;;;;;;;;;;;21.00;99.90;;;;;;5031057;28;19913;-52
2023/07/10 00:40:18;;;;;;;;;;;20.90;99.90;;;;;;5013156;28;19913;-53
2023/07/10 00:42:44;;;;;;;;;;;20.90;99.90;;;;;;5013265;28;19909;-52
2023/07/10 00:45:12;;;;;;;;;;;20.90;99.90;;;;;;5013042;28;19917;-53
2023/07/10 00:47:39;;;;;;;;;;;20.90;99.90;;;;;;5030994;28;19909;-50
2023/07/10 00:50:10;;;;;;;;;;;20.80;99.90;;;;;;5013194;28;19909;-50
2023/07/10 00:52:43;;;;;;;;;;;20.70;99.90;;;;;;5012959;28;19909;-55
2023/07/10 00:55:17;;;;;;;;;;;20.70;99.90;;;;;;5012907;28;20258;-53
2023/07/10 00:57:44;;;;;;;;;;;20.70;99.90;;;;;;5013134;28;20361;-54
2023/07/10 01:00:20;;;;;;;;;;;20.70;99.90;;;;;;5012963;28;19913;-52
2023/07/10 01:02:46;;;;;;;;;;;20.60;99.90;;;;;;5016276;28;19909;-55
2023/07/10 01:05:12;;;;;;;;;;;20.50;99.90;;;;;;5016544;28;19909;-53
2023/07/10 01:07:41;;;;;;;;;;;20.50;99.90;;;;;;5034455;28;19978;-54
2023/07/10 01:10:08;;;;;;;;;;;20.50;99.90;;;;;;5016552;28;20243;-53
2023/07/10 01:12:36;;;;;;;;;;;20.50;99.90;;;;;;5034153;28;19997;-52
2023/07/10 01:15:03;;;;;;;;;;;20.40;99.90;;;;;;5034428;28;19909;-54
2023/07/10 01:17:29;;;;;;;;;;;20.40;99.90;;;;;;5034351;28;19909;-51
2023/07/10 01:19:58;;;;;;;;;;;20.40;99.90;;;;;;5034087;28;19975;-55
2023/07/10 01:22:23;;;;;;;;;;;20.40;99.90;;;;;;5016001;28;19909;-55
2023/07/10 01:24:52;;;;;;;;;;;20.40;99.90;;;;;;5034137;28;19913;-55
2023/07/10 01:27:20;;;;;;;;;;;20.40;99.90;;;;;;5016504;28;19909;-54
2023/07/10 01:29:50;;;;;;;;;;;20.40;99.90;;;;;;5016405;28;19909;-55
2023/07/10 01:32:16;;;;;;;;;;;20.40;99.90;;;;;;5034112;28;19963;-53
2023/07/10 01:34:46;;;;;;;;;;;20.40;99.90;;;;;;5016043;28;19909;-55
2023/07/10 01:37:12;;;;;;;;;;;20.40;99.90;;;;;;5016441;28;19959;-54
2023/07/10 01:39:38;;;;;;;;;;;20.40;99.90;;;;;;5033745;28;20392;-54
2023/07/10 01:42:03;;;;;;;;;;;20.40;99.90;;;;;;5015870;28;19909;-54
2023/07/10 01:44:30;;;;;;;;;;;20.30;99.90;;;;;;5015756;28;19909;-55
2023/07/10 01:46:56;;;;;;;;;;;20.30;99.90;;;;;;5033640;28;19909;-53
2023/07/10 01:49:32;;;;;;;;;;;20.30;99.90;;;;;;5033573;28;19909;-54
2023/07/10 01:51:58;;;;;;;;;;;20.30;99.90;;;;;;5015772;28;19908;-55
2023/07/10 01:54:24;;;;;;;;;;;20.30;99.90;;;;;;5015625;28;19916;-55
2023/07/10 01:56:49;;;;;;;;;;;20.30;99.90;;;;;;5015701;28;19909;-53
2023/07/10 01:59:15;;;;;;;;;;;20.30;99.90;;;;;;5015618;28;19913;-54
2023/07/10 02:01:41;;;;;;;;;;;20.20;99.90;;;;;;5015416;28;19959;-55
2023/07/10 02:04:06;;;;;;;;;;;20.20;99.90;;;;;;5015295;28;19909;-55
2023/07/10 02:06:34;;;;;;;;;;;20.20;99.90;;;;;;5015786;28;20089;-54
2023/07/10 02:09:00;;;;;;;;;;;20.20;99.90;;;;;;5033398;28;19916;-54
2023/07/10 02:11:26;;;;;;;;;;;20.20;99.90;;;;;;5015780;28;20281;-52
2023/07/10 02:13:51;;;;;;;;;;;20.20;99.90;;;;;;5015285;28;19909;-54
2023/07/10 02:16:17;;;;;;;;;;;20.20;99.90;;;;;;5033355;28;20003;-53
2023/07/10 02:18:42;;;;;;;;;;;20.20;99.90;;;;;;5033200;28;20012;-54
2023/07/10 02:21:08;;;;;;;;;;;20.20;99.90;;;;;;5033482;28;19944;-55
2023/07/10 02:23:36;;;;;;;;;;;20.20;99.90;;;;;;5033015;28;19913;-52
2023/07/10 02:26:02;;;;;;;;;;;20.20;99.90;;;;;;5033056;28;19944;-54
2023/07/10 02:28:27;;;;;;;;;;;20.20;99.90;;;;;;5033028;28;19948;-54
2023/07/10 02:30:53;;;;;;;;;;;20.20;99.90;;;;;;5015188;28;19955;-55
2023/07/10 02:33:19;;;;;;;;;;;20.20;99.90;;;;;;5032526;28;19909;-54
2023/07/10 02:35:45;;;;;;;;;;;20.20;99.90;;;;;;5032693;28;19916;-51
2023/07/10 02:38:11;;;;;;;;;;;20.20;99.90;;;;;;5032786;28;19912;-54
2023/07/10 02:40:36;;;;;;;;;;;20.20;99.90;;;;;;5015004;28;19920;-50
2023/07/10 02:43:02;;;;;;;;;;;20.20;99.90;;;;;;5014615;28;19963;-55
2023/07/10 02:45:27;;;;;;;;;;;20.20;99.90;;;;;;5014627;28;19916;-55
2023/07/10 02:47:53;;;;;;;;;;;20.20;99.90;;;;;;5014830;28;20285;-53
2023/07/10 02:50:19;;;;;;;;;;;20.10;99.90;;;;;;5014714;28;19971;-53
2023/07/10 02:52:44;;;;;;;;;;;20.20;99.90;;;;;;5032426;28;19909;-53
2023/07/10 02:55:10;;;;;;;;;;;20.20;99.90;;;;;;5014601;28;20365;-54
2023/07/10 02:57:36;;;;;;;;;;;20.20;99.90;;;;;;5014546;28;19959;-54
2023/07/10 03:00:02;;;;;;;;;;;20.20;99.90;;;;;;5014448;28;20016;-53
2023/07/10 03:02:28;;;;;;;;;;;20.20;99.90;;;;;;5031906;28;19909;-55
2023/07/10 03:04:54;;;;;;;;;;;20.20;99.90;;;;;;5032084;28;19909;-54
2023/07/10 03:07:19;;;;;;;;;;;20.20;99.90;;;;;;5032212;28;19916;-55
2023/07/10 03:09:45;;;;;;;;;;;20.20;99.90;;;;;;5014408;28;19909;-55
2023/07/10 03:12:10;;;;;;;;;;;20.20;99.90;;;;;;5014422;28;20282;-54
2023/07/10 03:14:36;;;;;;;;;;;20.20;99.90;;;;;;5013973;28;19908;-54
2023/07/10 03:17:03;;;;;;;;;;;20.20;99.90;;;;;;5032473;28;20091;-53
2023/07/10 03:19:30;;;;;;;;;;;20.20;99.90;;;;;;5031689;28;19912;-55
2023/07/10 03:21:56;;;;;;;;;;;20.20;99.90;;;;;;5031947;28;19909;-54
2023/07/10 03:24:22;;;;;;;;;;;20.10;99.90;;;;;;5013430;28;19928;-52
2023/07/10 03:26:48;;;;;;;;;;;20.10;99.90;;;;;;5031833;28;19909;-54
2023/07/10 03:29:14;;;;;;;;;;;20.10;99.90;;;;;;5031791;28;19909;-52
2023/07/10 03:31:40;;;;;;;;;;;20.10;99.90;;;;;;5031521;28;19982;-52
2023/07/10 03:34:05;;;;;;;;;;;20.10;99.90;;;;;;5031441;28;20014;-53
2023/07/10 03:36:31;;;;;;;;;;;20.00;99.90;;;;;;5013968;28;19909;-53
2023/07/10 03:38:57;;;;;;;;;;;20.00;99.90;;;;;;5031660;28;19912;-53
2023/07/10 03:41:23;;;;;;;;;;;20.00;99.90;;;;;;5031759;28;20280;-51
2023/07/10 03:43:48;;;;;;;;;;;19.90;99.90;;;;;;5031665;28;19909;-54
2023/07/10 03:46:14;;;;;;;;;;;19.90;99.90;;;;;;5031516;28;19909;-50
2023/07/10 03:48:40;;;;;;;;;;;19.90;99.90;;;;;;5031466;28;19913;-52
2023/07/10 03:51:05;;;;;;;;;;;19.90;99.90;;;;;;5031452;28;20274;-50
2023/07/10 03:53:31;;;;;;;;;;;19.90;99.90;;;;;;5031104;28;19931;-51
2023/07/10 03:55:56;;;;;;;;;;;19.90;99.90;;;;;;5031281;28;19909;-51
2023/07/10 03:58:25;;;;;;;;;;;19.90;99.90;;;;;;5031340;28;19913;-50
2023/07/10 04:00:51;;;;;;;;;;;19.90;99.90;;;;;;5031147;28;19932;-53
2023/07/10 04:03:19;;;;;;;;;;;19.90;99.90;;;;;;5031066;28;19909;-53
2023/07/10 04:05:49;;;;;;;;;;;19.90;99.90;;;;;;5031078;28;20383;-51
2023/07/10 04:08:14;;;;;;;;;;;19.90;99.90;;;;;;5031371;28;19909;-50
2023/07/10 04:10:40;;;;;;;;;;;19.90;99.90;;;;;;5031246;28;19955;-49
2023/07/10 04:13:05;;;;;;;;;;;19.90;99.90;;;;;;5013244;28;19960;-52
2023/07/10 04:15:31;;;;;;;;;;;19.80;99.90;;;;;;5031375;28;19909;-50
2023/07/10 04:17:56;;;;;;;;;;;19.80;99.90;;;;;;5031273;28;20434;-50
2023/07/10 04:20:22;;;;;;;;;;;19.80;99.90;;;;;;5031027;28;19917;-51
2023/07/10 04:22:48;;;;;;;;;;;19.80;99.90;;;;;;5030923;28;19995;-50
2023/07/10 04:25:14;;;;;;;;;;;19.80;99.90;;;;;;5030978;28;20039;-53
2023/07/10 04:27:39;;;;;;;;;;;19.80;99.90;;;;;;5031108;28;19909;-54
2023/07/10 04:30:05;;;;;;;;;;;19.80;99.90;;;;;;5031557;28;20343;-52
2023/07/10 04:32:31;;;;;;;;;;;19.80;99.90;;;;;;5013277;28;20000;-49
2023/07/10 04:34:56;;;;;;;;;;;19.80;99.90;;;;;;5013163;28;19959;-53
2023/07/10 04:37:22;;;;;;;;;;;19.80;99.90;;;;;;5016439;28;19966;-53
2023/07/10 04:39:47;;;;;;;;;;;19.70;99.90;;;;;;5034921;28;19912;-52
2023/07/10 04:42:13;;;;;;;;;;;19.80;99.90;;;;;;5034674;28;20355;-50
2023/07/10 04:44:38;;;;;;;;;;;19.70;99.90;;;;;;5034664;28;19936;-51
2023/07/10 04:47:04;;;;;;;;;;;19.70;99.90;;;;;;5035011;28;20384;-51
2023/07/10 04:49:30;;;;;;;;;;;19.80;99.90;;;;;;5035069;28;19980;-52
2023/07/10 04:51:55;;;;;;;;;;;19.80;99.90;;;;;;5034817;28;19909;-50
2023/07/10 04:54:21;;;;;;;;;;;19.70;99.90;;;;;;5034798;28;19909;-50
2023/07/10 04:56:46;;;;;;;;;;;19.70;99.90;;;;;;5034870;28;20301;-54
2023/07/10 04:59:12;;;;;;;;;;;19.70;99.90;;;;;;5034539;28;19912;-51
2023/07/10 05:01:37;;;;;;;;;;;19.70;99.90;;;;;;5034552;28;19909;-53
2023/07/10 05:04:03;;;;;;;;;;;19.60;99.90;;;;;;5034394;28;20445;-52
2023/07/10 05:06:28;;;;;;;;;;;19.60;99.90;;;;;;5016903;28;19909;-50
2023/07/10 05:08:55;;;;;;;;;;;19.60;99.90;;;;;;5034511;28;19999;-51
2023/07/10 05:11:22;;;;;;;;;;;19.60;99.90;;;;;;5034215;28;19908;-54
2023/07/10 05:13:47;;;;;;;;;;;19.70;99.90;;;;;;5034436;28;19909;-55
2023/07/10 05:16:13;;;;;;;;;;;19.70;99.90;;;;;;5034531;28;19919;-52
2023/07/10 05:18:39;;;;;;;;;;;19.70;99.90;;;;;;5034129;28;20004;-51
2023/07/10 05:21:04;;;;;;;;;;;19.70;99.90;;;;;;5034166;28;20040;-50
2023/07/10 05:23:30;;;;;;;;;;;19.80;99.90;;;;;;5033956;28;19971;-54
2023/07/10 05:26:01;;;;;;;;;;;19.80;99.90;;;;;;5033948;28;19913;-51
2023/07/10 05:28:26;;;;;;;;;;;19.80;99.90;;;;;;5034137;28;20047;-55
2023/07/10 05:30:53;;;;;;;;;;;19.90;99.90;;;;;;5034201;28;20357;-54
2023/07/10 05:33:18;;;;;;;;;;;19.90;99.90;;;;;;5033750;28;19909;-53
2023/07/10 05:36:03;;;;;;;;;;;20.00;99.90;;;;;;5033851;28;19909;-55
2023/07/10 05:38:31;;;;;;;;;;;19.90;99.90;;;;;;5033983;28;19909;-56
2023/07/10 05:40:56;;;;;;;;;;;19.90;99.90;;;;;;5033995;28;19981;-54
2023/07/10 05:43:22;;;;;;;;;;;19.80;99.90;;;;;;5033848;28;20358;-51
2023/07/10 05:45:48;;;;;;;;;;;19.80;99.90;;;;;;5033803;28;19956;-54
2023/07/10 05:48:14;;;;;;;;;;;19.80;99.90;;;;;;5033388;28;19909;-52
2023/07/10 05:50:42;;;;;;;;;;;19.70;99.90;;;;;;5015962;28;20151;-55
2023/07/10 05:53:07;;;;;;;;;;;19.70;99.90;;;;;;5033261;28;19916;-52
2023/07/10 05:55:33;;;;;;;;;;;19.60;99.90;;;;;;5033247;28;19909;-53
2023/07/10 05:57:58;;;;;;;;;;;19.70;99.90;;;;;;5033569;28;20365;-54
2023/07/10 06:00:24;;;;;;;;;;;19.70;99.90;;;;;;5033395;28;19920;-52
2023/07/10 06:02:50;;;;;;;;;;;19.80;99.90;;;;;;5033201;28;19916;-56
2023/07/10 06:05:15;;;;;;;;;;;19.80;99.90;;;;;;5033137;28;20324;-54
2023/07/10 06:07:41;;;;;;;;;;;19.90;99.90;;;;;;5033395;28;20009;-53
2023/07/10 06:10:07;;;;;;;;;;;19.90;99.90;;;;;;5033133;28;19991;-55
2023/07/10 06:12:32;;;;;;;;;;;19.90;99.90;;;;;;5032966;28;19909;-56
2023/07/10 06:14:58;;;;;;;;;;;20.00;99.90;;;;;;5033051;28;19963;-53
2023/07/10 06:17:23;;;;;;;;;;;20.00;99.90;;;;;;5033224;28;19913;-52
2023/07/10 06:19:49;;;;;;;;;;;20.00;99.90;;;;;;5032886;28;20324;-52
2023/07/10 06:22:14;;;;;;;;;;;20.10;99.90;;;;;;5032811;28;19956;-54
2023/07/10 06:24:40;;;;;;;;;;;20.10;99.90;;;;;;5032576;28;20292;-55
2023/07/10 06:27:05;;;;;;;;;;;20.20;99.90;;;;;;5032923;28;20276;-55
2023/07/10 06:29:34;;;;;;;;;;;20.30;99.90;;;;;;5033087;28;19909;-54
2023/07/10 06:32:00;;;;;;;;;;;20.30;99.90;;;;;;5032906;28;19956;-53
2023/07/10 06:34:25;;;;;;;;;;;20.20;99.90;;;;;;5032565;28;20404;-56
2023/07/10 06:36:51;;;;;;;;;;;20.20;99.90;;;;;;5033187;28;20380;-52
2023/07/10 06:39:17;;;;;;;;;;;20.30;99.90;;;;;;5032585;28;19913;-52
2023/07/10 06:41:42;;;;;;;;;;;20.30;99.90;;;;;;5032444;28;20423;-56
2023/07/10 06:44:12;;;;;;;;;;;20.20;99.90;;;;;;5014618;28;19909;-56
2023/07/10 06:46:37;;;;;;;;;;;20.20;99.90;;;;;;5032572;28;19909;-56
2023/07/10 06:49:03;;;;;;;;;;;20.40;99.90;;;;;;5032960;28;19966;-56
2023/07/10 06:51:29;;;;;;;;;;;20.40;99.90;;;;;;5015274;28;19944;-52
2023/07/10 06:53:54;;;;;;;;;;;20.50;99.90;;;;;;5031975;28;19913;-56
2023/07/10 06:56:20;;;;;;;;;;;20.50;99.90;;;;;;5014908;28;19963;-52
2023/07/10 06:58:45;;;;;;;;;;;20.60;99.90;;;;;;5030788;28;20360;-55
2023/07/10 07:01:11;;;;;;;;;;;20.70;99.90;;;;;;5032082;28;19948;-55
2023/07/10 07:03:38;;;;;;;;;;;20.90;99.90;;;;;;5031865;28;20000;-54
2023/07/10 07:06:05;;;;;;;;;;;21.00;99.90;;;;;;5032030;28;19913;-53
2023/07/10 07:08:31;;;;;;;;;;;21.00;99.90;;;;;;5014374;28;20358;-52
2023/07/10 07:10:56;;;;;;;;;;;21.10;99.90;;;;;;5032005;28;19909;-52
2023/07/10 07:13:22;;;;;;;;;;;21.20;99.90;;;;;;5031554;28;19916;-52
2023/07/10 07:15:48;;;;;;;;;;;21.20;99.90;;;;;;5031828;28;19909;-56
2023/07/10 07:18:14;;;;;;;;;;;21.20;99.90;;;;;;5031955;28;20192;-53
2023/07/10 07:20:39;;;;;;;;;;;21.20;99.90;;;;;;5031785;28;19913;-52
2023/07/10 07:23:05;;;;;;;;;;;21.30;99.90;;;;;;5031593;28;19963;-54
2023/07/10 07:25:30;;;;;;;;;;;21.30;99.90;;;;;;5031619;28;19909;-56
2023/07/10 07:28:00;;;;;;;;;;;21.30;99.90;;;;;;5031982;28;20046;-56
2023/07/10 07:30:27;;;;;;;;;;;21.40;99.90;;;;;;5031873;28;19909;-53
2023/07/10 07:32:52;;;;;;;;;;;21.40;99.90;;;;;;5031496;28;19915;-53
2023/07/10 07:35:18;;;;;;;;;;;21.40;99.90;;;;;;5031413;28;20424;-54
2023/07/10 07:37:43;;;;;;;;;;;21.40;99.90;;;;;;5031553;28;19970;-52
2023/07/10 07:40:09;;;;;;;;;;;21.50;99.90;;;;;;5031508;28;20015;-51
2023/07/10 07:42:35;;;;;;;;;;;21.50;99.90;;;;;;5031251;28;20472;-54
2023/07/10 07:45:01;;;;;;;;;;;21.60;99.90;;;;;;5031450;28;20104;-53
2023/07/10 07:47:27;;;;;;;;;;;21.60;99.90;;;;;;5031684;28;19913;-54
2023/07/10 07:49:52;;;;;;;;;;;21.70;99.90;;;;;;5031496;28;19963;-56
2023/07/10 07:52:18;;;;;;;;;;;22.00;99.90;;;;;;5031138;28;19913;-54
2023/07/10 07:54:44;;;;;;;;;;;22.10;99.90;;;;;;5031286;28;19955;-55
2023/07/10 07:57:09;;;;;;;;;;;22.10;99.90;;;;;;5031481;28;19916;-52
2023/07/10 07:59:35;;;;;;;;;;;22.30;99.90;;;;;;5031293;28;19959;-54
2023/07/10 08:02:00;;;;;;;;;;;22.30;99.90;;;;;;5031266;28;19989;-55
2023/07/10 08:04:26;;;;;;;;;;;22.40;99.90;;;;;;5013629;28;20004;-55
2023/07/10 08:06:51;;;;;;;;;;;22.30;99.90;;;;;;5031579;28;19936;-54
2023/07/10 08:09:17;;;;;;;;;;;22.30;99.90;;;;;;5013768;28;19909;-51
2023/07/10 08:11:43;;;;;;;;;;;22.30;99.90;;;;;;5031029;28;19919;-53
2023/07/10 08:14:09;;;;;;;;;;;22.50;99.90;;;;;;5031083;28;19909;-53
2023/07/10 08:16:35;;;;;;;;;;;22.60;99.90;;;;;;5031268;28;19916;-54
2023/07/10 08:19:00;;;;;;;;;;;22.70;99.90;;;;;;5031094;28;19917;-54
2023/07/10 08:21:26;;;;;;;;;;;22.80;99.90;;;;;;5030983;28;20262;-54
2023/07/10 08:23:51;;;;;;;;;;;22.80;99.90;;;;;;5030586;28;19920;-51
2023/07/10 08:26:17;;;;;;;;;;;22.90;99.90;;;;;;5031116;28;19909;-54
2023/07/10 08:28:42;;;;;;;;;;;22.90;99.90;;;;;;5031377;28;19913;-55
2023/07/10 08:31:08;;;;;;;;;;;23.00;99.90;;;;;;5031029;28;20008;-51
2023/07/10 08:33:34;;;;;;;;;;;23.00;99.90;;;;;;5030656;28;19935;-51
2023/07/10 08:36:00;;;;;;;;;;;23.00;99.90;;;;;;5031318;28;20051;-55
2023/07/10 08:38:26;;;;;;;;;;;22.80;99.90;;;;;;5031543;28;20067;-56
2023/07/10 08:40:54;;;;;;;;;;;22.70;99.90;;;;;;5031560;28;20003;-55
2023/07/10 08:43:25;;;;;;;;;;;22.70;99.90;;;;;;5013346;28;19917;-54
2023/07/10 08:45:50;;;;;;;;;;;22.90;99.90;;;;;;5031429;28;19913;-52
2023/07/10 08:48:18;;;;;;;;;;;23.00;99.90;;;;;;5031361;28;19917;-54
2023/07/10 08:50:44;;;;;;;;;;;23.00;99.70;;;;;;5031320;28;19909;-54
2023/07/10 08:53:11;;;;;;;;;;;23.00;99.90;;;;;;5030986;28;19986;-52
2023/07/10 08:55:43;;;;;;;;;;;23.00;99.90;;;;;;5030776;28;19909;-51
2023/07/10 08:58:16;;;;;;;;;;;23.10;99.90;;;;;;5030720;28;19909;-54
2023/07/10 09:00:42;;;;;;;;;;;23.10;99.90;;;;;;5030615;28;19917;-56
2023/07/10 09:03:17;;;;;;;;;;;23.00;99.60;;;;;;5030392;28;19909;-56
2023/07/10 09:05:46;;;;;;;;;;;23.00;99.90;;;;;;5030392;28;19917;-56
2023/07/10 09:08:13;;;;;;;;;;;23.00;99.10;;;;;;5030571;28;20362;-54
2023/07/10 09:10:40;;;;;;;;;;;23.20;99.20;;;;;;5030609;28;20007;-56
2023/07/10 09:13:08;;;;;;;;;;;23.30;99.70;;;;;;5030204;28;19916;-52
2023/07/10 09:15:35;;;;;;;;;;;23.40;99.80;;;;;;5030423;28;20288;-55
2023/07/10 09:18:19;;;;;;;;;;;23.30;99.90;;;;;;5030560;28;19916;-54
2023/07/10 09:20:46;;;;;;;;;;;23.20;99.30;;;;;;5012724;28;19920;-55
2023/07/10 09:23:22;;;;;;;;;;;23.10;99.40;;;;;;5032676;28;19909;-52
2023/07/10 09:26:01;;;;;;;;;;;23.30;99.00;;;;;;5033709;28;19908;-56
2023/07/10 09:28:27;;;;;;;;;;;23.50;99.40;;;;;;5033954;28;20031;-55
2023/07/10 09:31:10;;;;;;;;;;;23.70;98.30;;;;;;5033884;28;19956;-53
2023/07/10 09:33:43;;;;;;;;;;;23.90;97.70;;;;;;5033908;28;19909;-52
2023/07/10 09:36:17;;;;;;;;;;;24.00;97.40;;;;;;5033635;28;19909;-54
2023/07/10 09:38:44;;;;;;;;;;;24.10;96.40;;;;;;5033689;28;20347;-54
2023/07/10 09:41:18;;;;;;;;;;;24.00;96.30;;;;;;5033841;28;20086;-55
2023/07/10 09:43:53;;;;;;;;;;;24.00;96.00;;;;;;5033402;28;20304;-53
2023/07/10 09:46:21;;;;;;;;;;;24.00;94.80;;;;;;5033884;28;20250;-54
2023/07/10 09:48:50;;;;;;;;;;;24.20;96.40;;;;;;5033552;28;20210;-54
2023/07/10 09:51:17;;;;;;;;;;;24.20;96.30;;;;;;5033391;28;19996;-52
2023/07/10 09:53:46;;;;;;;;;;;24.30;94.90;;;;;;5033219;28;19913;-53
2023/07/10 09:56:24;;;;;;;;;;;24.30;95.50;;;;;;5033456;28;19916;-54
2023/07/10 09:58:56;;;;;;;;;;;24.40;95.10;;;;;;5033559;28;19935;-54
2023/07/10 10:01:28;;;;;;;;;;;24.40;95.10;;;;;;5033383;28;20282;-55
2023/07/10 10:03:54;;;;;;;;;;;24.50;95.40;;;;;;5033112;28;19962;-54
2023/07/10 10:06:24;;;;;;;;;;;24.50;95.30;;;;;;5033372;28;19968;-53
2023/07/10 10:08:51;;;;;;;;;;;24.60;96.70;;;;;;5033455;28;19924;-51
2023/07/10 10:11:17;;;;;;;;;;;24.60;97.00;;;;;;5033557;28;20392;-55
2023/07/10 10:13:56;;;;;;;;;;;24.60;95.50;;;;;;5032865;28;19916;-53
2023/07/10 10:16:24;;;;;;;;;;;24.60;95.10;;;;;;5048517;28;19913;-54
2023/07/10 10:18:53;;;;;;;;;;;24.70;94.40;;;;;;5033096;28;19924;-55
2023/07/10 10:21:20;;;;;;;;;;;24.80;96.40;;;;;;5032876;28;20054;-55
2023/07/10 10:23:47;;;;;;;;;;;24.90;95.00;;;;;;5032746;28;19909;-54
2023/07/10 10:26:31;;;;;;;;;;;24.90;94.60;;;;;;5032966;28;19909;-52
2023/07/10 10:28:57;;;;;;;;;;;25.00;94.80;;;;;;5032959;28;19916;-53
2023/07/10 10:31:25;;;;;;;;;;;25.10;93.90;;;;;;5032777;28;19913;-52
2023/07/10 10:34:01;;;;;;;;;;;25.10;95.10;;;;;;5031375;28;20253;-54
2023/07/10 10:36:53;;;;;;;;;;;25.00;93.70;;;;;;5032809;28;19909;-56
2023/07/10 10:39:32;;;;;;;;;;;25.00;94.90;;;;;;5024185;28;19920;-53
2023/07/10 10:42:00;;;;;;;;;;;24.90;93.50;;;;;;5032523;28;19908;-55
2023/07/10 10:44:42;;;;;;;;;;;24.90;95.90;;;;;;5032832;28;19976;-53
2023/07/10 10:47:07;;;;;;;;;;;25.10;94.70;;;;;;5032580;28;19932;-54
2023/07/10 10:49:32;;;;;;;;;;;25.20;93.60;;;;;;5032517;28;20361;-52
2023/07/10 10:52:03;;;;;;;;;;;25.10;93.60;;;;;;5032357;28;19916;-54
2023/07/10 10:54:52;;;;;;;;;;;25.30;94.20;;;;;;5032321;28;20393;-55
2023/07/10 10:57:26;;;;;;;;;;;25.50;93.20;;;;;;5032413;28;19909;-55
2023/07/10 11:00:15;;;;;;;;;;;25.60;91.80;;;;;;5032558;28;19920;-53
2023/07/10 11:03:04;;;;;;;;;;;25.70;91.30;;;;;;5031813;28;19916;-53
2023/07/10 11:05:44;;;;;;;;;;;25.80;91.20;;;;;;5029455;28;19920;-54
2023/07/10 11:08:33;;;;;;;;;;;25.80;91.60;;;;;;5032251;28;19959;-53
2023/07/10 11:10:58;;;;;;;;;;;25.70;90.00;;;;;;5028982;28;19916;-55
2023/07/10 11:13:27;;;;;;;;;;;25.70;90.20;;;;;;5031869;28;19909;-55
2023/07/10 11:15:53;;;;;;;;;;;25.70;90.70;;;;;;5031895;28;19999;-53
2023/07/10 11:18:18;;;;;;;;;;;25.70;90.20;;;;;;5031673;28;20039;-51
2023/07/10 11:20:44;;;;;;;;;;;25.70;90.60;;;;;;5032057;28;20289;-55
2023/07/10 11:23:28;;;;;;;;;;;25.60;90.50;;;;;;5031884;28;20347;-51
2023/07/10 11:25:59;;;;;;;;;;;25.50;90.70;;;;;;5031997;28;19962;-51
2023/07/10 11:28:26;;;;;;;;;;;25.50;90.90;;;;;;5032175;28;19916;-53
2023/07/10 11:31:12;;;;;;;;;;;25.80;90.80;;;;;;5032107;28;19909;-50
2023/07/10 11:33:37;;;;;;;;;;;25.80;90.50;;;;;;5031652;28;19909;-50
2023/07/10 11:36:10;;;;;;;;;;;25.70;91.30;;;;;;5031856;28;20258;-54
2023/07/10 11:38:35;;;;;;;;;;;25.70;90.00;;;;;;5031954;28;20093;-54
2023/07/10 11:41:20;;;;;;;;;;;25.60;91.30;;;;;;5031758;28;19968;-55
2023/07/10 11:43:47;;;;;;;;;;;25.60;90.20;;;;;;5031464;28;19909;-54
2023/07/10 11:46:17;;;;;;;;;;;25.70;91.20;;;;;;5031303;28;19909;-52
2023/07/10 11:48:55;;;;;;;;;;;25.90;90.90;;;;;;5031513;28;19920;-56
2023/07/10 11:51:28;;;;;;;;;;;26.00;90.50;;;;;;5031507;28;20008;-54
2023/07/10 11:54:14;;;;;;;;;;;25.80;87.70;;;;;;5031191;28;19909;-55
2023/07/10 11:56:59;;;;;;;;;;;25.60;89.80;;;;;;5031530;28;19909;-53
2023/07/10 11:59:25;;;;;;;;;;;25.50;90.10;;;;;;5031310;28;19913;-53
2023/07/10 12:01:51;;;;;;;;;;;25.80;90.60;;;;;;5031394;28;19915;-56
2023/07/10 12:04:18;;;;;;;;;;;26.00;90.30;;;;;;5030937;28;20003;-51
2023/07/10 12:06:46;;;;;;;;;;;25.90;90.50;;;;;;5031567;28;19913;-50
2023/07/10 12:09:12;;;;;;;;;;;26.10;90.10;;;;;;5031207;28;19913;-53
2023/07/10 12:11:38;;;;;;;;;;;26.20;88.40;;;;;;5030947;28;19909;-53
2023/07/10 12:14:04;;;;;;;;;;;26.10;91.00;;;;;;5030793;28;19963;-55
2023/07/10 12:16:30;;;;;;;;;;;26.10;89.10;;;;;;5031347;28;19952;-55
2023/07/10 12:19:02;;;;;;;;;;;26.10;88.60;;;;;;5031017;28;19913;-51
2023/07/10 12:21:27;;;;;;;;;;;26.10;88.70;;;;;;5031091;28;20324;-55
2023/07/10 12:23:53;;;;;;;;;;;26.30;86.40;;;;;;5030812;28;19913;-52
2023/07/10 12:26:18;;;;;;;;;;;26.50;85.60;;;;;;5031080;28;19909;-54
2023/07/10 12:28:44;;;;;;;;;;;26.50;89.10;;;;;;5031507;28;19951;-50
2023/07/10 12:31:12;;;;;;;;;;;26.60;87.70;;;;;;5030935;28;19909;-52
2023/07/10 12:33:40;;;;;;;;;;;26.60;86.00;;;;;;5030721;28;19909;-55
2023/07/10 12:36:14;;;;;;;;;;;26.70;87.90;;;;;;5030864;28;19909;-53
2023/07/10 12:38:40;;;;;;;;;;;26.40;88.50;;;;;;5031052;28;19909;-54
2023/07/10 12:41:06;;;;;;;;;;;26.20;86.80;;;;;;5031020;28;19924;-53
2023/07/10 12:43:32;;;;;;;;;;;25.90;86.70;;;;;;5030710;28;19994;-55
2023/07/10 12:45:58;;;;;;;;;;;25.60;88.40;;;;;;5030651;28;20357;-53
2023/07/10 12:48:26;;;;;;;;;;;25.60;90.40;;;;;;5030935;28;19975;-53
2023/07/10 12:50:53;;;;;;;;;;;25.60;88.60;;;;;;5031021;28;19909;-55
2023/07/10 12:53:20;;;;;;;;;;;25.60;88.40;;;;;;5030592;28;20368;-55
2023/07/10 12:55:46;;;;;;;;;;;25.50;88.50;;;;;;5030676;28;19909;-53
2023/07/10 12:58:15;;;;;;;;;;;25.60;90.40;;;;;;5033375;28;19909;-55
2023/07/10 13:00:59;;;;;;;;;;;25.60;87.80;;;;;;5016792;28;19943;-55
2023/07/10 13:03:29;;;;;;;;;;;25.50;88.50;;;;;;5034333;28;19912;-55
2023/07/10 13:05:59;;;;;;;;;;;25.50;88.80;;;;;;5034361;28;19979;-53
2023/07/10 13:08:31;;;;;;;;;;;25.40;88.50;;;;;;5034491;28;19909;-54
2023/07/10 13:10:57;;;;;;;;;;;25.50;90.40;;;;;;5034447;28;19913;-54
2023/07/10 13:13:31;;;;;;;;;;;25.60;90.60;;;;;;5034134;28;19919;-54
2023/07/10 13:15:58;;;;;;;;;;;26.10;87.10;;;;;;5034139;28;19909;-54
2023/07/10 13:18:25;;;;;;;;;;;26.20;87.60;;;;;;5034513;28;20318;-55
2023/07/10 13:20:50;;;;;;;;;;;26.40;87.30;;;;;;5034179;28;19917;-52
2023/07/10 13:23:17;;;;;;;;;;;26.70;84.80;;;;;;5034396;28;20032;-54
2023/07/10 13:25:42;;;;;;;;;;;26.90;83.50;;;;;;5034040;28;19995;-52
2023/07/10 13:28:18;;;;;;;;;;;27.10;82.30;;;;;;5034167;28;19999;-52
2023/07/10 13:30:44;;;;;;;;;;;27.10;83.50;;;;;;5034016;28;19916;-52
2023/07/10 13:33:18;;;;;;;;;;;27.30;82.00;;;;;;5033893;28;20176;-54
2023/07/10 13:35:45;;;;;;;;;;;27.00;81.10;;;;;;5016090;28;20277;-55
2023/07/10 13:38:11;;;;;;;;;;;26.70;82.40;;;;;;5034198;28;20327;-54
2023/07/10 13:40:37;;;;;;;;;;;26.80;83.40;;;;;;5034041;28;19913;-55
2023/07/10 13:43:04;;;;;;;;;;;27.00;84.00;;;;;;5033675;28;19913;-55
2023/07/10 13:45:30;;;;;;;;;;;27.20;83.10;;;;;;5033662;28;20495;-53
2023/07/10 13:47:56;;;;;;;;;;;27.20;82.00;;;;;;5033826;28;19948;-54
2023/07/10 13:50:21;;;;;;;;;;;27.30;83.20;;;;;;5033698;28;19952;-54
2023/07/10 13:52:47;;;;;;;;;;;27.40;80.40;;;;;;5033586;28;20393;-52
2023/07/10 13:55:12;;;;;;;;;;;27.50;80.50;;;;;;5033511;28;19956;-55
2023/07/10 13:57:38;;;;;;;;;;;27.60;80.80;;;;;;5033739;28;19948;-53
2023/07/10 14:00:04;;;;;;;;;;;27.60;80.70;;;;;;5033475;28;19913;-55
2023/07/10 14:02:35;;;;;;;;;;;27.60;79.30;;;;;;5033237;28;20297;-55
2023/07/10 14:05:02;;;;;;;;;;;27.60;78.20;;;;;;5033272;28;19912;-51
2023/07/10 14:07:28;;;;;;;;;;;27.60;78.90;;;;;;5033246;28;19916;-54
2023/07/10 14:09:56;;;;;;;;;;;27.60;78.90;;;;;;5033423;28;19909;-54
2023/07/10 14:12:22;;;;;;;;;;;27.60;79.20;;;;;;5033110;28;19909;-52
2023/07/10 14:14:48;;;;;;;;;;;27.60;79.90;;;;;;5033181;28;19916;-50
2023/07/10 14:17:26;;;;;;;;;;;27.60;77.60;;;;;;5033286;28;19920;-52
2023/07/10 14:19:51;;;;;;;;;;;27.40;79.40;;;;;;5033093;28;19913;-54